sensor_id;sensor_type;location;lat;lon;timestamp;temperature;humidity
59469;DHT22;45277;52.768;18.262;2024-02-23T00:01:24;8.50;99.90
59469;DHT22;45277;52.768;18.262;2024-02-23T00:02:56;8.50;99.90
59469;DHT22;45277;52.768;18.262;2024-02-23T00:04:28;8.50;99.90
59469;DHT22;45277;52.768;18.262;2024-02-23T00:06:00;8.50;99.90
59469;DHT22;45277;52.768;18.262;2024-02-23T00:07:32;8.50;99.90
59469;DHT22;45277;52.768;18.262;2024-02-23T00:09:03;8.40;99.90
59469;DHT22;45277;52.768;18.262;2024-02-23T00:10:34;8.40;99.90
59469;DHT22;45277;52.768;18.262;2024-02-23T00:12:06;8.40;99.90
59469;DHT22;45277;52.768;18.262;2024-02-23T00:13:39;8.40;99.90
59469;DHT22;45277;52.768;18.262;2024-02-23T00:15:10;8.50;99.90
59469;DHT22;45277;52.768;18.262;2024-02-23T00:16:42;8.50;99.90
59469;DHT22;45277;52.768;18.262;2024-02-23T00:18:13;8.50;99.90
59469;DHT22;45277;52.768;18.262;2024-02-23T00:19:46;8.50;99.90
59469;DHT22;45277;52.768;18.262;2024-02-23T00:21:18;8.50;99.90
59469;DHT22;45277;52.768;18.262;2024-02-23T00:22:49;8.50;99.90
59469;DHT22;45277;52.768;18.262;2024-02-23T00:24:21;8.60;99.90
59469;DHT22;45277;52.768;18.262;2024-02-23T00:25:52;8.60;99.90
59469;DHT22;45277;52.768;18.262;2024-02-23T00:27:23;8.60;99.90
59469;DHT22;45277;52.768;18.262;2024-02-23T00:28:55;8.60;99.90
59469;DHT22;45277;52.768;18.262;2024-02-23T00:30:27;8.60;99.90
59469;DHT22;45277;52.768;18.262;2024-02-23T00:31:58;8.60;99.90
59469;DHT22;45277;52.768;18.262;2024-02-23T00:33:29;8.60;99.90
59469;DHT22;45277;52.768;18.262;2024-02-23T00:35:01;8.60;99.90
59469;DHT22;45277;52.768;18.262;2024-02-23T00:36:32;8.60;99.90
59469;DHT22;45277;52.768;18.262;2024-02-23T00:38:03;8.60;99.90
59469;DHT22;45277;52.768;18.262;2024-02-23T00:39:35;8.60;99.90
59469;DHT22;45277;52.768;18.262;2024-02-23T00:41:07;8.60;99.90
59469;DHT22;45277;52.768;18.262;2024-02-23T00:42:38;8.60;99.90
59469;DHT22;45277;52.768;18.262;2024-02-23T00:44:10;8.60;99.90
59469;DHT22;45277;52.768;18.262;2024-02-23T00:45:41;8.60;99.90
59469;DHT22;45277;52.768;18.262;2024-02-23T00:47:12;8.60;99.90
59469;DHT22;45277;52.768;18.262;2024-02-23T00:48:43;8.60;99.90
59469;DHT22;45277;52.768;18.262;2024-02-23T00:50:15;8.60;99.90
59469;DHT22;45277;52.768;18.262;2024-02-23T00:51:46;8.60;99.90
59469;DHT22;45277;52.768;18.262;2024-02-23T00:53:17;8.70;99.90
59469;DHT22;45277;52.768;18.262;2024-02-23T00:54:48;8.70;99.90
59469;DHT22;45277;52.768;18.262;2024-02-23T00:56:20;8.70;99.90
59469;DHT22;45277;52.768;18.262;2024-02-23T00:57:51;8.60;99.90
59469;DHT22;45277;52.768;18.262;2024-02-23T00:59:22;8.60;99.90
59469;DHT22;45277;52.768;18.262;2024-02-23T01:00:54;8.70;99.90
59469;DHT22;45277;52.768;18.262;2024-02-23T01:02:26;8.70;99.90
59469;DHT22;45277;52.768;18.262;2024-02-23T01:03:57;8.70;99.90
59469;DHT22;45277;52.768;18.262;2024-02-23T01:05:29;8.70;99.90
59469;DHT22;45277;52.768;18.262;2024-02-23T01:07:00;8.70;99.90
59469;DHT22;45277;52.768;18.262;2024-02-23T01:08:31;8.70;99.90
59469;DHT22;45277;52.768;18.262;2024-02-23T01:10:03;8.70;99.90
59469;DHT22;45277;52.768;18.262;2024-02-23T01:11:35;8.70;99.90
59469;DHT22;45277;52.768;18.262;2024-02-23T01:13:06;8.80;99.90
59469;DHT22;45277;52.768;18.262;2024-02-23T01:14:37;8.80;99.90
59469;DHT22;45277;52.768;18.262;2024-02-23T01:16:08;8.80;99.90
59469;DHT22;45277;52.768;18.262;2024-02-23T01:17:40;8.80;99.90
59469;DHT22;45277;52.768;18.262;2024-02-23T01:19:11;8.80;99.90
59469;DHT22;45277;52.768;18.262;2024-02-23T01:20:42;8.80;99.90
59469;DHT22;45277;52.768;18.262;2024-02-23T01:22:13;8.80;99.90
59469;DHT22;45277;52.768;18.262;2024-02-23T01:23:45;8.90;99.90
59469;DHT22;45277;52.768;18.262;2024-02-23T01:25:17;8.80;99.90
59469;DHT22;45277;52.768;18.262;2024-02-23T01:26:48;8.80;99.90
59469;DHT22;45277;52.768;18.262;2024-02-23T01:28:19;8.80;99.90
59469;DHT22;45277;52.768;18.262;2024-02-23T01:29:51;8.80;99.90
59469;DHT22;45277;52.768;18.262;2024-02-23T01:31:22;8.80;99.90
59469;DHT22;45277;52.768;18.262;2024-02-23T01:32:53;8.80;99.90
59469;DHT22;45277;52.768;18.262;2024-02-23T01:34:25;8.80;99.90
59469;DHT22;45277;52.768;18.262;2024-02-23T01:35:56;8.80;99.90
59469;DHT22;45277;52.768;18.262;2024-02-23T01:37:29;8.80;99.90
59469;DHT22;45277;52.768;18.262;2024-02-23T01:39:00;8.80;99.90
59469;DHT22;45277;52.768;18.262;2024-02-23T01:40:31;8.80;99.90
59469;DHT22;45277;52.768;18.262;2024-02-23T01:42:03;8.80;99.90
59469;DHT22;45277;52.768;18.262;2024-02-23T01:43:34;8.70;99.90
59469;DHT22;45277;52.768;18.262;2024-02-23T01:45:06;8.80;99.90
59469;DHT22;45277;52.768;18.262;2024-02-23T01:46:38;8.80;99.90
59469;DHT22;45277;52.768;18.262;2024-02-23T01:48:10;8.80;99.90
59469;DHT22;45277;52.768;18.262;2024-02-23T01:49:41;8.80;99.90
59469;DHT22;45277;52.768;18.262;2024-02-23T01:51:13;8.80;99.90
59469;DHT22;45277;52.768;18.262;2024-02-23T01:52:45;8.80;99.90
59469;DHT22;45277;52.768;18.262;2024-02-23T01:54:16;8.80;99.90
59469;DHT22;45277;52.768;18.262;2024-02-23T01:55:48;8.80;99.90
59469;DHT22;45277;52.768;18.262;2024-02-23T01:57:21;8.80;99.90
59469;DHT22;45277;52.768;18.262;2024-02-23T01:58:55;8.80;99.90
59469;DHT22;45277;52.768;18.262;2024-02-23T02:00:27;8.90;99.90
59469;DHT22;45277;52.768;18.262;2024-02-23T02:01:58;8.80;99.90
59469;DHT22;45277;52.768;18.262;2024-02-23T02:03:29;8.90;99.90
59469;DHT22;45277;52.768;18.262;2024-02-23T02:05:01;8.90;99.90
59469;DHT22;45277;52.768;18.262;2024-02-23T02:06:32;8.90;99.90
59469;DHT22;45277;52.768;18.262;2024-02-23T02:08:04;8.90;99.90
59469;DHT22;45277;52.768;18.262;2024-02-23T02:09:36;9.00;99.90
59469;DHT22;45277;52.768;18.262;2024-02-23T02:11:07;9.00;99.90
59469;DHT22;45277;52.768;18.262;2024-02-23T02:12:38;9.00;99.90
59469;DHT22;45277;52.768;18.262;2024-02-23T02:14:09;9.00;99.90
59469;DHT22;45277;52.768;18.262;2024-02-23T02:15:41;9.00;99.90
59469;DHT22;45277;52.768;18.262;2024-02-23T02:17:14;9.10;99.90
59469;DHT22;45277;52.768;18.262;2024-02-23T02:18:45;9.10;99.90
59469;DHT22;45277;52.768;18.262;2024-02-23T02:20:18;9.10;99.90
59469;DHT22;45277;52.768;18.262;2024-02-23T02:21:50;9.10;99.90
59469;DHT22;45277;52.768;18.262;2024-02-23T02:23:21;9.10;99.90
59469;DHT22;45277;52.768;18.262;2024-02-23T02:24:52;9.10;99.90
59469;DHT22;45277;52.768;18.262;2024-02-23T02:26:23;9.10;99.90
59469;DHT22;45277;52.768;18.262;2024-02-23T02:27:54;9.00;99.90
59469;DHT22;45277;52.768;18.262;2024-02-23T02:29:26;9.00;99.90
59469;DHT22;45277;52.768;18.262;2024-02-23T02:30:57;9.00;99.90
59469;DHT22;45277;52.768;18.262;2024-02-23T02:32:28;9.00;99.90
59469;DHT22;45277;52.768;18.262;2024-02-23T02:34:00;8.90;99.90
59469;DHT22;45277;52.768;18.262;2024-02-23T02:35:31;8.90;99.90
59469;DHT22;45277;52.768;18.262;2024-02-23T02:37:02;8.80;99.90
59469;DHT22;45277;52.768;18.262;2024-02-23T02:38:33;8.80;99.90
59469;DHT22;45277;52.768;18.262;2024-02-23T02:40:05;8.80;99.90
59469;DHT22;45277;52.768;18.262;2024-02-23T02:41:36;8.80;99.90
59469;DHT22;45277;52.768;18.262;2024-02-23T02:43:08;8.80;99.90
59469;DHT22;45277;52.768;18.262;2024-02-23T02:44:39;8.70;99.90
59469;DHT22;45277;52.768;18.262;2024-02-23T02:46:10;8.70;99.90
59469;DHT22;45277;52.768;18.262;2024-02-23T02:47:42;8.70;99.90
59469;DHT22;45277;52.768;18.262;2024-02-23T02:49:13;8.70;99.90
59469;DHT22;45277;52.768;18.262;2024-02-23T02:50:44;8.70;99.90
59469;DHT22;45277;52.768;18.262;2024-02-23T02:52:15;8.70;99.90
59469;DHT22;45277;52.768;18.262;2024-02-23T02:53:47;8.70;99.90
59469;DHT22;45277;52.768;18.262;2024-02-23T02:55:18;8.70;99.90
59469;DHT22;45277;52.768;18.262;2024-02-23T02:56:49;8.70;99.90
59469;DHT22;45277;52.768;18.262;2024-02-23T02:58:21;8.70;99.90
59469;DHT22;45277;52.768;18.262;2024-02-23T02:59:52;8.70;99.90
59469;DHT22;45277;52.768;18.262;2024-02-23T03:01:24;8.70;99.90
59469;DHT22;45277;52.768;18.262;2024-02-23T03:02:55;8.70;99.90
59469;DHT22;45277;52.768;18.262;2024-02-23T03:04:26;8.70;99.90
59469;DHT22;45277;52.768;18.262;2024-02-23T03:05:58;8.70;99.90
59469;DHT22;45277;52.768;18.262;2024-02-23T03:07:29;8.70;99.90
59469;DHT22;45277;52.768;18.262;2024-02-23T03:09:00;8.70;99.90
59469;DHT22;45277;52.768;18.262;2024-02-23T03:10:32;8.70;99.90
59469;DHT22;45277;52.768;18.262;2024-02-23T03:12:04;8.70;99.90
59469;DHT22;45277;52.768;18.262;2024-02-23T03:13:35;8.70;99.90
59469;DHT22;45277;52.768;18.262;2024-02-23T03:15:07;8.70;99.90
59469;DHT22;45277;52.768;18.262;2024-02-23T03:16:38;8.70;99.90
59469;DHT22;45277;52.768;18.262;2024-02-23T03:18:09;8.70;99.90
59469;DHT22;45277;52.768;18.262;2024-02-23T03:19:41;8.70;99.90
59469;DHT22;45277;52.768;18.262;2024-02-23T03:21:12;8.70;99.90
59469;DHT22;45277;52.768;18.262;2024-02-23T03:22:46;8.70;99.90
59469;DHT22;45277;52.768;18.262;2024-02-23T03:24:17;8.70;99.90
59469;DHT22;45277;52.768;18.262;2024-02-23T03:25:49;8.70;99.90
59469;DHT22;45277;52.768;18.262;2024-02-23T03:27:27;8.80;99.90
59469;DHT22;45277;52.768;18.262;2024-02-23T03:28:58;8.80;99.90
59469;DHT22;45277;52.768;18.262;2024-02-23T03:30:29;8.80;99.90
59469;DHT22;45277;52.768;18.262;2024-02-23T03:32:01;8.90;99.90
59469;DHT22;45277;52.768;18.262;2024-02-23T03:33:32;8.90;99.90
59469;DHT22;45277;52.768;18.262;2024-02-23T03:35:04;8.90;99.90
59469;DHT22;45277;52.768;18.262;2024-02-23T03:36:36;8.90;99.90
59469;DHT22;45277;52.768;18.262;2024-02-23T03:38:08;9.00;99.90
59469;DHT22;45277;52.768;18.262;2024-02-23T03:39:39;9.00;99.90
59469;DHT22;45277;52.768;18.262;2024-02-23T03:41:10;9.00;99.90
59469;DHT22;45277;52.768;18.262;2024-02-23T03:42:42;9.00;99.90
59469;DHT22;45277;52.768;18.262;2024-02-23T03:44:13;9.00;99.90
59469;DHT22;45277;52.768;18.262;2024-02-23T03:45:44;9.00;99.90
59469;DHT22;45277;52.768;18.262;2024-02-23T03:47:15;9.00;99.90
59469;DHT22;45277;52.768;18.262;2024-02-23T03:48:47;9.00;99.90
59469;DHT22;45277;52.768;18.262;2024-02-23T03:50:18;9.00;99.90
59469;DHT22;45277;52.768;18.262;2024-02-23T03:51:49;9.00;99.90
59469;DHT22;45277;52.768;18.262;2024-02-23T03:53:20;9.00;99.90
59469;DHT22;45277;52.768;18.262;2024-02-23T03:54:53;9.00;99.90
59469;DHT22;45277;52.768;18.262;2024-02-23T03:56:26;9.10;99.90
59469;DHT22;45277;52.768;18.262;2024-02-23T03:57:57;9.10;99.90
59469;DHT22;45277;52.768;18.262;2024-02-23T03:59:28;9.10;99.90
59469;DHT22;45277;52.768;18.262;2024-02-23T04:00:59;9.10;99.90
59469;DHT22;45277;52.768;18.262;2024-02-23T04:02:31;9.20;99.90
59469;DHT22;45277;52.768;18.262;2024-02-23T04:04:02;9.20;99.90
59469;DHT22;45277;52.768;18.262;2024-02-23T04:05:34;9.20;99.90
59469;DHT22;45277;52.768;18.262;2024-02-23T04:07:05;9.20;99.90
59469;DHT22;45277;52.768;18.262;2024-02-23T04:08:36;9.20;99.90
59469;DHT22;45277;52.768;18.262;2024-02-23T04:10:08;9.30;99.90
59469;DHT22;45277;52.768;18.262;2024-02-23T04:11:39;9.30;99.90
59469;DHT22;45277;52.768;18.262;2024-02-23T04:13:10;9.40;99.90
59469;DHT22;45277;52.768;18.262;2024-02-23T04:14:45;9.40;99.90
59469;DHT22;45277;52.768;18.262;2024-02-23T04:16:16;9.50;99.90
59469;DHT22;45277;52.768;18.262;2024-02-23T04:17:47;9.50;99.90
59469;DHT22;45277;52.768;18.262;2024-02-23T04:19:18;9.50;99.90
59469;DHT22;45277;52.768;18.262;2024-02-23T04:20:50;9.50;99.90
59469;DHT22;45277;52.768;18.262;2024-02-23T04:22:21;9.60;99.90
59469;DHT22;45277;52.768;18.262;2024-02-23T04:23:52;9.50;99.90
59469;DHT22;45277;52.768;18.262;2024-02-23T04:25:23;9.60;99.90
59469;DHT22;45277;52.768;18.262;2024-02-23T04:26:55;9.60;99.90
59469;DHT22;45277;52.768;18.262;2024-02-23T04:28:26;9.60;99.90
59469;DHT22;45277;52.768;18.262;2024-02-23T04:30:03;9.60;99.90
59469;DHT22;45277;52.768;18.262;2024-02-23T04:31:37;9.60;99.90
59469;DHT22;45277;52.768;18.262;2024-02-23T04:33:09;9.60;99.90
59469;DHT22;45277;52.768;18.262;2024-02-23T04:34:40;9.60;99.90
59469;DHT22;45277;52.768;18.262;2024-02-23T04:36:12;9.70;99.90
59469;DHT22;45277;52.768;18.262;2024-02-23T04:37:44;9.70;99.90
59469;DHT22;45277;52.768;18.262;2024-02-23T04:39:16;9.70;99.90
59469;DHT22;45277;52.768;18.262;2024-02-23T04:40:47;9.70;99.90
59469;DHT22;45277;52.768;18.262;2024-02-23T04:42:19;9.70;99.90
59469;DHT22;45277;52.768;18.262;2024-02-23T04:43:50;9.70;99.90
59469;DHT22;45277;52.768;18.262;2024-02-23T04:45:21;9.70;99.90
59469;DHT22;45277;52.768;18.262;2024-02-23T04:46:53;9.80;99.90
59469;DHT22;45277;52.768;18.262;2024-02-23T04:48:24;9.80;99.90
59469;DHT22;45277;52.768;18.262;2024-02-23T04:49:55;9.80;99.90
59469;DHT22;45277;52.768;18.262;2024-02-23T04:51:27;9.90;99.90
59469;DHT22;45277;52.768;18.262;2024-02-23T04:52:58;9.90;99.90
59469;DHT22;45277;52.768;18.262;2024-02-23T04:54:29;9.90;99.90
59469;DHT22;45277;52.768;18.262;2024-02-23T04:56:01;9.90;99.90
59469;DHT22;45277;52.768;18.262;2024-02-23T04:57:32;9.90;99.90
59469;DHT22;45277;52.768;18.262;2024-02-23T04:59:03;9.90;99.90
59469;DHT22;45277;52.768;18.262;2024-02-23T05:00:35;10.00;99.90
59469;DHT22;45277;52.768;18.262;2024-02-23T05:02:06;10.00;99.90
59469;DHT22;45277;52.768;18.262;2024-02-23T05:03:37;10.00;99.90
59469;DHT22;45277;52.768;18.262;2024-02-23T05:05:09;10.00;99.90
59469;DHT22;45277;52.768;18.262;2024-02-23T05:06:40;10.00;99.90
59469;DHT22;45277;52.768;18.262;2024-02-23T05:08:11;10.00;99.90
59469;DHT22;45277;52.768;18.262;2024-02-23T05:09:43;10.00;99.90
59469;DHT22;45277;52.768;18.262;2024-02-23T05:11:14;10.00;99.90
59469;DHT22;45277;52.768;18.262;2024-02-23T05:12:47;10.00;99.90
59469;DHT22;45277;52.768;18.262;2024-02-23T05:14:18;10.00;99.90
59469;DHT22;45277;52.768;18.262;2024-02-23T05:15:50;10.00;99.90
59469;DHT22;45277;52.768;18.262;2024-02-23T05:17:21;10.00;99.90
59469;DHT22;45277;52.768;18.262;2024-02-23T05:18:52;10.00;99.90
59469;DHT22;45277;52.768;18.262;2024-02-23T05:20:23;10.00;99.90
59469;DHT22;45277;52.768;18.262;2024-02-23T05:21:55;10.00;99.90
59469;DHT22;45277;52.768;18.262;2024-02-23T05:23:26;10.10;99.90
59469;DHT22;45277;52.768;18.262;2024-02-23T05:24:57;10.10;99.90
59469;DHT22;45277;52.768;18.262;2024-02-23T05:26:28;10.10;99.90
59469;DHT22;45277;52.768;18.262;2024-02-23T05:28:00;10.10;99.90
59469;DHT22;45277;52.768;18.262;2024-02-23T05:29:31;10.10;99.90
59469;DHT22;45277;52.768;18.262;2024-02-23T05:31:02;10.10;99.90
59469;DHT22;45277;52.768;18.262;2024-02-23T05:32:35;10.10;99.90
59469;DHT22;45277;52.768;18.262;2024-02-23T05:34:06;10.10;99.90
59469;DHT22;45277;52.768;18.262;2024-02-23T05:35:37;10.10;99.90
59469;DHT22;45277;52.768;18.262;2024-02-23T05:37:08;10.10;99.90
59469;DHT22;45277;52.768;18.262;2024-02-23T05:38:39;10.10;99.90
59469;DHT22;45277;52.768;18.262;2024-02-23T05:40:11;10.10;99.90
59469;DHT22;45277;52.768;18.262;2024-02-23T05:41:43;10.10;99.90
59469;DHT22;45277;52.768;18.262;2024-02-23T05:43:15;10.10;99.90
59469;DHT22;45277;52.768;18.262;2024-02-23T05:44:46;10.20;99.90
59469;DHT22;45277;52.768;18.262;2024-02-23T05:46:19;10.20;99.90
59469;DHT22;45277;52.768;18.262;2024-02-23T05:47:52;10.20;99.90
59469;DHT22;45277;52.768;18.262;2024-02-23T05:49:23;10.10;99.90
59469;DHT22;45277;52.768;18.262;2024-02-23T05:50:55;10.10;99.90
59469;DHT22;45277;52.768;18.262;2024-02-23T05:52:26;10.10;99.90
59469;DHT22;45277;52.768;18.262;2024-02-23T05:53:58;10.10;99.90
59469;DHT22;45277;52.768;18.262;2024-02-23T05:55:30;10.10;99.90
59469;DHT22;45277;52.768;18.262;2024-02-23T05:57:01;10.10;99.90
59469;DHT22;45277;52.768;18.262;2024-02-23T05:58:33;10.10;99.90
59469;DHT22;45277;52.768;18.262;2024-02-23T06:00:05;10.10;99.90
59469;DHT22;45277;52.768;18.262;2024-02-23T06:01:38;10.20;99.90
59469;DHT22;45277;52.768;18.262;2024-02-23T06:03:09;10.20;99.90
59469;DHT22;45277;52.768;18.262;2024-02-23T06:04:41;10.20;99.90
59469;DHT22;45277;52.768;18.262;2024-02-23T06:06:12;10.20;99.90
59469;DHT22;45277;52.768;18.262;2024-02-23T06:07:43;10.30;99.90
59469;DHT22;45277;52.768;18.262;2024-02-23T06:09:15;10.20;99.90
59469;DHT22;45277;52.768;18.262;2024-02-23T06:10:46;10.30;99.90
59469;DHT22;45277;52.768;18.262;2024-02-23T06:12:17;10.30;99.90
59469;DHT22;45277;52.768;18.262;2024-02-23T06:13:49;10.30;99.90
59469;DHT22;45277;52.768;18.262;2024-02-23T06:15:20;10.40;99.90
59469;DHT22;45277;52.768;18.262;2024-02-23T06:16:51;10.40;99.90
59469;DHT22;45277;52.768;18.262;2024-02-23T06:18:23;10.40;99.90
59469;DHT22;45277;52.768;18.262;2024-02-23T06:19:54;10.50;99.90
59469;DHT22;45277;52.768;18.262;2024-02-23T06:21:28;10.50;99.90
59469;DHT22;45277;52.768;18.262;2024-02-23T06:22:59;10.60;99.90
59469;DHT22;45277;52.768;18.262;2024-02-23T06:24:30;10.60;99.90
59469;DHT22;45277;52.768;18.262;2024-02-23T06:26:02;10.60;99.90
59469;DHT22;45277;52.768;18.262;2024-02-23T06:27:33;10.70;99.90
59469;DHT22;45277;52.768;18.262;2024-02-23T06:29:04;10.70;99.90
59469;DHT22;45277;52.768;18.262;2024-02-23T06:30:36;10.80;99.90
59469;DHT22;45277;52.768;18.262;2024-02-23T06:32:08;10.80;99.90
59469;DHT22;45277;52.768;18.262;2024-02-23T06:33:39;10.80;99.90
59469;DHT22;45277;52.768;18.262;2024-02-23T06:35:11;10.80;99.90
59469;DHT22;45277;52.768;18.262;2024-02-23T06:36:43;10.90;99.90
59469;DHT22;45277;52.768;18.262;2024-02-23T06:38:14;10.90;99.90
59469;DHT22;45277;52.768;18.262;2024-02-23T06:39:45;10.90;99.90
59469;DHT22;45277;52.768;18.262;2024-02-23T06:41:21;10.90;99.90
59469;DHT22;45277;52.768;18.262;2024-02-23T06:42:52;11.00;99.90
59469;DHT22;45277;52.768;18.262;2024-02-23T06:44:23;11.00;99.90
59469;DHT22;45277;52.768;18.262;2024-02-23T06:45:55;11.00;99.90
59469;DHT22;45277;52.768;18.262;2024-02-23T06:47:26;11.00;99.90
59469;DHT22;45277;52.768;18.262;2024-02-23T06:48:57;10.90;99.90
59469;DHT22;45277;52.768;18.262;2024-02-23T06:50:29;10.90;99.90
59469;DHT22;45277;52.768;18.262;2024-02-23T06:52:00;10.90;99.90
59469;DHT22;45277;52.768;18.262;2024-02-23T06:53:31;10.90;99.90
59469;DHT22;45277;52.768;18.262;2024-02-23T06:55:03;10.90;99.90
59469;DHT22;45277;52.768;18.262;2024-02-23T06:56:35;10.90;99.90
59469;DHT22;45277;52.768;18.262;2024-02-23T06:58:07;10.90;99.90
59469;DHT22;45277;52.768;18.262;2024-02-23T06:59:38;10.90;99.90
59469;DHT22;45277;52.768;18.262;2024-02-23T07:01:09;10.90;99.90
59469;DHT22;45277;52.768;18.262;2024-02-23T07:02:43;10.90;99.90
59469;DHT22;45277;52.768;18.262;2024-02-23T07:04:15;10.80;99.90
59469;DHT22;45277;52.768;18.262;2024-02-23T07:05:46;10.80;99.90
59469;DHT22;45277;52.768;18.262;2024-02-23T07:07:18;10.80;99.90
59469;DHT22;45277;52.768;18.262;2024-02-23T07:08:50;10.80;99.90
59469;DHT22;45277;52.768;18.262;2024-02-23T07:10:21;10.80;99.90
59469;DHT22;45277;52.768;18.262;2024-02-23T07:11:53;10.80;99.90
59469;DHT22;45277;52.768;18.262;2024-02-23T07:13:25;10.80;99.90
59469;DHT22;45277;52.768;18.262;2024-02-23T07:14:56;10.80;99.90
59469;DHT22;45277;52.768;18.262;2024-02-23T07:16:27;10.80;99.90
59469;DHT22;45277;52.768;18.262;2024-02-23T07:17:59;10.80;99.90
59469;DHT22;45277;52.768;18.262;2024-02-23T07:19:30;10.80;99.90
59469;DHT22;45277;52.768;18.262;2024-02-23T07:21:01;10.80;99.90
59469;DHT22;45277;52.768;18.262;2024-02-23T07:22:33;10.80;99.90
59469;DHT22;45277;52.768;18.262;2024-02-23T07:24:05;10.80;99.90
59469;DHT22;45277;52.768;18.262;2024-02-23T07:25:36;10.80;99.90
59469;DHT22;45277;52.768;18.262;2024-02-23T07:27:08;10.80;99.90
59469;DHT22;45277;52.768;18.262;2024-02-23T07:28:39;10.80;99.90
59469;DHT22;45277;52.768;18.262;2024-02-23T07:30:11;10.70;99.90
59469;DHT22;45277;52.768;18.262;2024-02-23T07:31:43;10.70;99.90
59469;DHT22;45277;52.768;18.262;2024-02-23T07:33:14;10.70;99.90
59469;DHT22;45277;52.768;18.262;2024-02-23T07:34:45;10.80;99.90
59469;DHT22;45277;52.768;18.262;2024-02-23T07:36:17;10.70;99.90
59469;DHT22;45277;52.768;18.262;2024-02-23T07:37:48;10.80;99.90
59469;DHT22;45277;52.768;18.262;2024-02-23T07:39:20;10.80;99.90
59469;DHT22;45277;52.768;18.262;2024-02-23T07:40:53;10.90;99.90
59469;DHT22;45277;52.768;18.262;2024-02-23T07:42:24;10.90;99.90
59469;DHT22;45277;52.768;18.262;2024-02-23T07:43:55;10.90;99.90
59469;DHT22;45277;52.768;18.262;2024-02-23T07:45:26;10.90;99.90
59469;DHT22;45277;52.768;18.262;2024-02-23T07:46:58;10.90;99.90
59469;DHT22;45277;52.768;18.262;2024-02-23T07:48:30;10.90;99.90
59469;DHT22;45277;52.768;18.262;2024-02-23T07:50:01;10.90;99.90
59469;DHT22;45277;52.768;18.262;2024-02-23T07:51:33;10.90;99.90
59469;DHT22;45277;52.768;18.262;2024-02-23T07:53:04;10.90;99.90
59469;DHT22;45277;52.768;18.262;2024-02-23T07:54:35;10.90;99.90
59469;DHT22;45277;52.768;18.262;2024-02-23T07:56:10;10.90;99.90
59469;DHT22;45277;52.768;18.262;2024-02-23T07:57:41;10.90;99.90
59469;DHT22;45277;52.768;18.262;2024-02-23T07:59:12;10.90;99.90
59469;DHT22;45277;52.768;18.262;2024-02-23T08:00:44;10.90;99.90
59469;DHT22;45277;52.768;18.262;2024-02-23T08:02:15;11.00;99.90
59469;DHT22;45277;52.768;18.262;2024-02-23T08:03:46;11.00;99.90
59469;DHT22;45277;52.768;18.262;2024-02-23T08:05:17;11.00;99.90
59469;DHT22;45277;52.768;18.262;2024-02-23T08:06:49;11.00;99.90
59469;DHT22;45277;52.768;18.262;2024-02-23T08:08:22;11.00;99.90
59469;DHT22;45277;52.768;18.262;2024-02-23T08:09:54;11.00;99.90
59469;DHT22;45277;52.768;18.262;2024-02-23T08:11:25;11.00;99.90
59469;DHT22;45277;52.768;18.262;2024-02-23T08:12:57;11.00;99.90
59469;DHT22;45277;52.768;18.262;2024-02-23T08:14:28;11.00;99.90
59469;DHT22;45277;52.768;18.262;2024-02-23T08:15:59;11.00;99.90
59469;DHT22;45277;52.768;18.262;2024-02-23T08:17:31;11.00;99.90
59469;DHT22;45277;52.768;18.262;2024-02-23T08:19:02;11.00;99.90
59469;DHT22;45277;52.768;18.262;2024-02-23T08:20:33;11.00;99.90
59469;DHT22;45277;52.768;18.262;2024-02-23T08:22:05;11.00;91.40
59469;DHT22;45277;52.768;18.262;2024-02-23T08:23:36;11.00;94.10
59469;DHT22;45277;52.768;18.262;2024-02-23T08:25:08;11.00;90.90
59469;DHT22;45277;52.768;18.262;2024-02-23T08:26:39;11.10;91.40
59469;DHT22;45277;52.768;18.262;2024-02-23T08:28:11;11.10;80.90
59469;DHT22;45277;52.768;18.262;2024-02-23T08:29:42;11.10;82.10
59469;DHT22;45277;52.768;18.262;2024-02-23T08:31:15;11.00;81.10
59469;DHT22;45277;52.768;18.262;2024-02-23T08:32:47;11.00;90.60
59469;DHT22;45277;52.768;18.262;2024-02-23T08:34:18;10.90;94.60
59469;DHT22;45277;52.768;18.262;2024-02-23T08:35:50;11.00;86.80
59469;DHT22;45277;52.768;18.262;2024-02-23T08:37:21;10.90;91.70
59469;DHT22;45277;52.768;18.262;2024-02-23T08:38:52;10.90;92.60
59469;DHT22;45277;52.768;18.262;2024-02-23T08:40:24;10.90;98.00
59469;DHT22;45277;52.768;18.262;2024-02-23T08:41:55;10.90;99.00
59469;DHT22;45277;52.768;18.262;2024-02-23T08:43:26;10.90;99.90
59469;DHT22;45277;52.768;18.262;2024-02-23T08:44:57;10.90;99.90
59469;DHT22;45277;52.768;18.262;2024-02-23T08:46:29;11.00;99.90
59469;DHT22;45277;52.768;18.262;2024-02-23T08:48:00;11.00;99.90
59469;DHT22;45277;52.768;18.262;2024-02-23T08:49:31;11.10;99.90
59469;DHT22;45277;52.768;18.262;2024-02-23T08:51:03;11.10;99.90
59469;DHT22;45277;52.768;18.262;2024-02-23T08:52:34;11.10;99.90
59469;DHT22;45277;52.768;18.262;2024-02-23T08:54:06;11.10;99.90
59469;DHT22;45277;52.768;18.262;2024-02-23T08:55:38;11.10;99.90
59469;DHT22;45277;52.768;18.262;2024-02-23T08:57:10;11.10;99.90
59469;DHT22;45277;52.768;18.262;2024-02-23T08:58:41;11.20;99.90
59469;DHT22;45277;52.768;18.262;2024-02-23T09:00:13;11.10;99.90
59469;DHT22;45277;52.768;18.262;2024-02-23T09:01:45;11.20;99.90
59469;DHT22;45277;52.768;18.262;2024-02-23T09:03:18;11.20;99.90
59469;DHT22;45277;52.768;18.262;2024-02-23T09:04:49;11.30;99.90
59469;DHT22;45277;52.768;18.262;2024-02-23T09:06:20;11.40;99.90
59469;DHT22;45277;52.768;18.262;2024-02-23T09:07:51;11.50;99.90
59469;DHT22;45277;52.768;18.262;2024-02-23T09:09:24;11.60;99.90
59469;DHT22;45277;52.768;18.262;2024-02-23T09:10:56;11.60;99.90
59469;DHT22;45277;52.768;18.262;2024-02-23T09:12:27;11.70;99.90
59469;DHT22;45277;52.768;18.262;2024-02-23T09:13:58;11.80;99.90
59469;DHT22;45277;52.768;18.262;2024-02-23T09:15:30;11.80;99.90
59469;DHT22;45277;52.768;18.262;2024-02-23T09:17:02;11.80;99.90
59469;DHT22;45277;52.768;18.262;2024-02-23T09:18:33;11.80;99.90
59469;DHT22;45277;52.768;18.262;2024-02-23T09:20:04;11.90;99.90
59469;DHT22;45277;52.768;18.262;2024-02-23T09:21:36;12.00;99.60
59469;DHT22;45277;52.768;18.262;2024-02-23T09:23:07;12.00;96.00
59469;DHT22;45277;52.768;18.262;2024-02-23T09:24:41;11.90;76.70
59469;DHT22;45277;52.768;18.262;2024-02-23T09:26:13;11.90;78.30
59469;DHT22;45277;52.768;18.262;2024-02-23T09:27:44;11.80;66.20
59469;DHT22;45277;52.768;18.262;2024-02-23T09:29:15;11.80;65.10
59469;DHT22;45277;52.768;18.262;2024-02-23T09:30:47;11.70;57.10
59469;DHT22;45277;52.768;18.262;2024-02-23T09:32:18;11.60;56.00
59469;DHT22;45277;52.768;18.262;2024-02-23T09:33:49;11.60;73.80